Time;durP1;ratioP1;P1;durP2;ratioP2;P2;SDS_P1;SDS_P2;PMS_P1;PMS_P2;Temp;Humidity;BMP_temperature;BMP_pressure;BME280_temperature;BME280_humidity;BME280_pressure;Samples;Min_cycle;Max_cycle;Signal;HPM_P1;HPM_P2
2022/11/07 00:02:12;;;;;;;4.60;1.92;;;11.90;86.50;;;;;;4898780;29;20527;-75
2022/11/07 00:04:38;;;;;;;4.75;1.92;;;11.90;86.50;;;;;;4881636;29;20061;-75
2022/11/07 00:07:04;;;;;;;3.53;2.20;;;11.90;86.50;;;;;;4898368;29;20127;-75
2022/11/07 00:09:30;;;;;;;5.18;1.80;;;11.90;86.50;;;;;;4898572;29;20029;-74
2022/11/07 00:11:56;;;;;;;2.88;1.95;;;11.90;86.40;;;;;;4881657;29;20149;-74
2022/11/07 00:14:22;;;;;;;4.53;2.08;;;11.90;86.40;;;;;;4898508;29;20089;-74
2022/11/07 00:16:48;;;;;;;3.97;1.73;;;11.90;86.40;;;;;;4898528;29;20080;-74
2022/11/07 00:19:16;;;;;;;5.22;2.20;;;12.00;86.40;;;;;;4898509;29;20096;-74
2022/11/07 00:21:42;;;;;;;5.53;1.90;;;11.90;86.30;;;;;;4898647;29;20040;-75
2022/11/07 00:24:09;;;;;;;4.78;1.85;;;11.90;86.40;;;;;;4881544;29;20067;-74
2022/11/07 00:26:35;;;;;;;4.55;2.03;;;11.90;86.40;;;;;;4881510;29;20028;-75
2022/11/07 00:29:02;;;;;;;3.85;2.00;;;11.90;86.50;;;;;;4898412;29;20110;-74
2022/11/07 00:31:28;;;;;;;4.00;2.00;;;11.90;86.50;;;;;;4881466;29;20503;-74
2022/11/07 00:33:55;;;;;;;3.25;1.77;;;11.90;86.50;;;;;;4898250;29;20107;-74
2022/11/07 00:36:26;;;;;;;3.42;2.17;;;11.90;86.50;;;;;;4881350;29;20507;-74
2022/11/07 00:38:52;;;;;;;6.05;1.85;;;11.90;86.40;;;;;;4898356;29;20493;-73
2022/11/07 00:41:18;;;;;;;2.65;1.40;;;11.90;86.40;;;;;;4881182;29;20036;-73
2022/11/07 00:43:44;;;;;;;6.75;2.20;;;12.00;86.40;;;;;;4881297;29;20032;-73
2022/11/07 00:46:11;;;;;;;2.88;1.75;;;12.00;86.30;;;;;;4881363;29;20025;-73
2022/11/07 00:48:37;;;;;;;4.32;1.85;;;12.00;86.30;;;;;;4897957;29;20523;-74
2022/11/07 00:51:18;;;;;;;6.15;1.90;;;12.00;86.30;;;;;;4881113;29;20066;-75
2022/11/07 00:53:44;;;;;;;5.38;1.88;;;12.00;86.30;;;;;;4898017;29;20469;-76
2022/11/07 00:56:12;;;;;;;3.70;1.75;;;12.00;86.30;;;;;;4895259;29;20071;-79
2022/11/07 00:58:38;;;;;;;6.68;2.10;;;12.00;86.30;;;;;;4897909;29;20035;-78
2022/11/07 01:01:11;;;;;;;5.90;2.30;;;12.00;86.30;;;;;;4897883;29;20037;-78
2022/11/07 01:06:21;;;;;;;3.63;1.90;;;12.00;86.30;;;;;;4897964;29;20453;-78
2022/11/07 01:08:47;;;;;;;4.25;1.63;;;12.00;86.30;;;;;;4897676;29;20052;-78
2022/11/07 01:11:13;;;;;;;5.20;1.80;;;12.00;86.30;;;;;;4880772;29;20039;-77
2022/11/07 01:13:39;;;;;;;4.15;2.10;;;12.10;86.30;;;;;;4897396;29;20033;-79
2022/11/07 01:16:08;;;;;;;3.40;1.65;;;12.00;86.30;;;;;;4897732;29;20032;-78
2022/11/07 01:18:33;;;;;;;4.07;1.60;;;12.10;86.30;;;;;;4897220;29;20522;-78
2022/11/07 01:21:03;;;;;;;3.22;1.90;;;12.10;86.30;;;;;;4897097;29;20111;-78
2022/11/07 01:23:29;;;;;;;6.43;1.83;;;12.10;86.30;;;;;;4897117;29;20028;-78
2022/11/07 01:25:54;;;;;;;4.57;1.70;;;12.10;86.30;;;;;;4880386;29;20173;-75
2022/11/07 01:28:20;;;;;;;6.95;1.98;;;12.00;86.20;;;;;;4897296;29;20365;-74
2022/11/07 01:30:46;;;;;;;3.55;1.63;;;12.10;86.30;;;;;;4897116;29;20044;-74
2022/11/07 01:33:12;;;;;;;4.10;1.55;;;12.10;86.20;;;;;;4894226;29;20149;-79
2022/11/07 01:35:39;;;;;;;4.03;1.75;;;12.10;86.30;;;;;;4897217;29;20039;-77
2022/11/07 01:38:05;;;;;;;4.03;1.85;;;12.10;86.30;;;;;;4880340;29;20068;-79
2022/11/07 01:41:19;;;;;;;4.93;1.80;;;12.10;86.20;;;;;;4880033;29;20037;-78
2022/11/07 01:43:16;;;;;;;4.20;1.52;;;12.10;86.20;;;;;;4896815;29;20521;-79
2022/11/07 01:45:42;;;;;;;8.18;2.60;;;12.10;86.10;;;;;;4880140;29;20036;-78
2022/11/07 01:48:08;;;;;;;5.20;1.90;;;12.10;86.10;;;;;;4897144;29;20024;-78
2022/11/07 01:50:33;;;;;;;3.80;1.63;;;12.20;86.10;;;;;;4896893;29;20036;-78
2022/11/07 01:52:59;;;;;;;4.90;1.70;;;12.20;86.10;;;;;;4879663;29;20373;-78
2022/11/07 01:55:28;;;;;;;6.78;1.70;;;12.20;86.10;;;;;;4896640;29;20036;-79
2022/11/07 01:58:04;;;;;;;7.15;1.60;;;12.20;86.10;;;;;;4896855;29;20512;-79
2022/11/07 02:00:32;;;;;;;7.53;2.10;;;12.10;86.10;;;;;;4879761;29;20040;-79
2022/11/07 02:03:11;;;;;;;6.32;1.95;;;12.10;86.10;;;;;;4877198;29;20036;-78
2022/11/07 02:05:39;;;;;;;3.25;1.58;;;12.20;86.10;;;;;;4896752;29;20548;-77
2022/11/07 02:08:07;;;;;;;5.18;1.73;;;12.20;86.10;;;;;;4896439;29;20056;-78
2022/11/07 02:10:38;;;;;;;6.00;2.13;;;12.20;86.10;;;;;;4879813;29;20096;-78
2022/11/07 02:13:05;;;;;;;5.43;2.10;;;12.20;86.10;;;;;;4896402;29;20039;-77
2022/11/07 02:15:33;;;;;;;7.22;1.77;;;12.10;86.10;;;;;;4896601;29;20508;-78
2022/11/07 02:18:00;;;;;;;6.05;1.88;;;12.10;86.10;;;;;;4896495;29;20437;-78
2022/11/07 02:20:26;;;;;;;3.25;1.50;;;12.10;86.10;;;;;;4896187;29;20036;-79
2022/11/07 02:23:16;;;;;;;6.47;2.00;;;12.10;86.20;;;;;;4879701;29;20028;-79
2022/11/07 02:25:41;;;;;;;6.22;1.83;;;12.10;86.20;;;;;;4896524;29;20036;-77
2022/11/07 02:28:09;;;;;;;7.28;2.03;;;12.10;86.30;;;;;;4896588;29;20414;-79
2022/11/07 02:30:34;;;;;;;4.03;1.80;;;12.10;86.30;;;;;;4879805;29;20036;-79
2022/11/07 02:33:01;;;;;;;6.15;1.90;;;12.00;86.30;;;;;;4879498;29;20119;-79
2022/11/07 02:35:42;;;;;;;4.43;1.70;;;12.00;86.30;;;;;;4879574;29;20044;-79
2022/11/07 02:38:28;;;;;;;4.28;1.67;;;12.00;86.30;;;;;;4879626;29;20024;-78
2022/11/07 02:41:18;;;;;;;6.85;1.65;;;12.00;86.40;;;;;;4879676;29;20029;-77
2022/11/07 02:44:07;;;;;;;6.47;2.45;;;12.00;86.40;;;;;;4896347;29;20063;-78
2022/11/07 02:46:33;;;;;;;5.43;1.98;;;12.00;86.40;;;;;;4896315;29;20030;-78
2022/11/07 02:49:00;;;;;;;5.47;2.00;;;12.00;86.50;;;;;;4879589;29;20127;-78
2022/11/07 02:51:26;;;;;;;3.45;1.80;;;12.00;86.50;;;;;;4879632;29;20036;-76
2022/11/07 02:53:52;;;;;;;6.00;1.65;;;12.00;86.50;;;;;;4879572;29;20132;-74
2022/11/07 02:56:19;;;;;;;6.38;2.20;;;12.00;86.50;;;;;;4896177;29;20040;-74
2022/11/07 02:58:45;;;;;;;4.63;1.70;;;12.00;86.50;;;;;;4896438;29;20035;-75
2022/11/07 03:01:11;;;;;;;5.38;2.00;;;12.00;86.60;;;;;;4879238;29;20095;-75
2022/11/07 03:03:40;;;;;;;4.88;1.80;;;11.90;86.60;;;;;;4881742;29;20036;-75
2022/11/07 03:06:07;;;;;;;4.88;1.83;;;11.90;86.70;;;;;;4883080;29;20032;-76
2022/11/07 03:08:33;;;;;;;6.28;2.03;;;11.90;86.80;;;;;;4882691;29;20404;-75
2022/11/07 03:10:59;;;;;;;7.07;2.20;;;11.90;86.80;;;;;;4899708;29;20024;-74
2022/11/07 03:13:25;;;;;;;4.75;1.83;;;11.90;86.90;;;;;;4899745;29;20024;-74
2022/11/07 03:15:51;;;;;;;6.90;1.98;;;11.90;86.80;;;;;;4899910;29;20059;-74
2022/11/07 03:18:17;;;;;;;6.03;2.08;;;11.80;86.80;;;;;;4899381;29;20168;-75
2022/11/07 03:20:43;;;;;;;6.55;2.05;;;11.80;86.90;;;;;;4882674;29;20028;-75
2022/11/07 03:23:08;;;;;;;4.10;1.73;;;11.80;87.00;;;;;;4882437;29;20017;-75
2022/11/07 03:25:35;;;;;;;5.07;1.95;;;11.70;87.10;;;;;;4882606;29;20566;-74
2022/11/07 03:28:01;;;;;;;5.63;1.83;;;11.70;87.10;;;;;;4899513;29;20484;-75
2022/11/07 03:30:27;;;;;;;3.20;1.58;;;11.70;87.10;;;;;;4882721;29;20056;-75
2022/11/07 03:32:53;;;;;;;5.00;1.95;;;11.70;87.10;;;;;;4899475;29;20444;-72
2022/11/07 03:35:20;;;;;;;2.88;1.50;;;11.80;87.20;;;;;;4882479;29;20025;-74
2022/11/07 03:37:46;;;;;;;5.50;1.98;;;11.70;87.10;;;;;;4882508;29;20021;-75
2022/11/07 03:40:12;;;;;;;5.47;1.83;;;11.80;87.30;;;;;;4882712;29;20055;-74
2022/11/07 03:42:40;;;;;;;6.25;2.10;;;11.80;87.20;;;;;;4882268;29;20020;-74
2022/11/07 03:45:10;;;;;;;5.82;1.75;;;11.80;87.20;;;;;;4882284;29;20121;-74
2022/11/07 03:47:37;;;;;;;5.18;1.75;;;11.80;87.20;;;;;;4882386;29;20579;-73
2022/11/07 03:50:03;;;;;;;4.22;1.80;;;11.80;87.20;;;;;;4882115;29;20481;-72
2022/11/07 03:52:29;;;;;;;6.38;1.75;;;11.90;87.20;;;;;;4882159;29;20568;-74
2022/11/07 03:54:54;;;;;;;6.00;1.90;;;11.90;87.30;;;;;;4899148;29;20025;-73
2022/11/07 03:57:20;;;;;;;6.10;2.17;;;11.90;87.10;;;;;;4882195;29;20366;-73
2022/11/07 03:59:46;;;;;;;5.65;1.80;;;12.00;87.10;;;;;;4898958;29;20100;-75
2022/11/07 04:02:11;;;;;;;4.55;1.90;;;12.00;87.10;;;;;;4898833;29;20035;-74
2022/11/07 04:04:37;;;;;;;9.80;2.10;;;12.00;87.10;;;;;;4881941;29;20029;-74
2022/11/07 04:07:03;;;;;;;5.95;2.10;;;12.00;87.10;;;;;;4881825;29;20412;-74
2022/11/07 04:09:28;;;;;;;7.78;2.00;;;12.00;87.10;;;;;;4881910;29;20031;-75
2022/11/07 04:17:25;;;;;;;5.18;1.52;;;12.10;87.10;;;;;;4898917;29;20128;-75
2022/11/07 04:19:56;;;;;;;5.75;1.75;;;12.10;87.10;;;;;;4879123;29;20041;-76
2022/11/07 04:22:23;;;;;;;5.03;1.92;;;12.10;87.10;;;;;;4881686;29;20029;-74
2022/11/07 04:24:49;;;;;;;5.07;1.67;;;12.10;87.10;;;;;;4881903;29;20047;-74
2022/11/07 04:30:17;;;;;;;5.82;1.52;;;12.00;87.10;;;;;;4898406;29;20077;-74
2022/11/07 04:32:44;;;;;;;4.75;1.60;;;12.00;87.10;;;;;;4898381;29;20116;-75
2022/11/07 04:35:10;;;;;;;7.80;1.90;;;12.00;87.20;;;;;;4881907;29;20025;-76
2022/11/07 04:37:35;;;;;;;8.27;1.90;;;12.00;87.20;;;;;;4881781;29;20088;-75
2022/11/07 04:40:01;;;;;;;7.68;1.85;;;12.00;87.20;;;;;;4898218;29;20040;-79
2022/11/07 04:42:26;;;;;;;7.70;2.20;;;12.10;87.20;;;;;;4881576;29;20477;-79
2022/11/07 04:44:52;;;;;;;7.30;1.77;;;12.10;87.20;;;;;;4898267;29;20036;-80
2022/11/07 04:47:17;;;;;;;5.47;1.70;;;12.10;87.10;;;;;;4881689;29;20028;-78
2022/11/07 04:49:43;;;;;;;7.22;2.35;;;12.10;87.10;;;;;;4881673;29;20054;-79
2022/11/07 04:52:10;;;;;;;4.85;1.80;;;12.10;87.10;;;;;;4898395;29;20033;-76
2022/11/07 04:54:36;;;;;;;6.90;1.77;;;12.20;87.10;;;;;;4898342;29;20075;-75
2022/11/07 04:57:01;;;;;;;8.45;2.20;;;12.10;87.00;;;;;;4898433;29;20066;-75
2022/11/07 04:59:27;;;;;;;7.00;1.80;;;12.20;87.10;;;;;;4881272;29;20443;-74
2022/11/07 05:01:52;;;;;;;9.00;1.95;;;12.20;87.00;;;;;;4881134;29;20036;-75
2022/11/07 05:04:18;;;;;;;7.00;1.88;;;12.20;87.00;;;;;;4880857;29;20183;-74
2022/11/07 05:06:44;;;;;;;7.82;1.75;;;12.20;87.00;;;;;;4898246;29;20034;-74
2022/11/07 05:09:15;;;;;;;9.75;1.95;;;12.30;87.00;;;;;;4881250;29;20404;-75
2022/11/07 05:11:41;;;;;;;7.60;1.83;;;12.30;87.00;;;;;;4881142;29;20123;-75
2022/11/07 05:14:07;;;;;;;9.55;1.70;;;12.30;86.90;;;;;;4878917;29;20096;-75
2022/11/07 05:16:33;;;;;;;5.35;1.63;;;12.30;86.90;;;;;;4898821;29;20111;-75
2022/11/07 05:18:59;;;;;;;7.60;1.60;;;12.30;86.90;;;;;;4898230;29;20028;-75
2022/11/07 05:21:24;;;;;;;4.57;1.70;;;12.30;86.90;;;;;;4898590;29;20507;-75
2022/11/07 05:23:50;;;;;;;4.72;1.50;;;12.30;86.90;;;;;;4899013;29;20033;-75
2022/11/07 05:26:17;;;;;;;5.13;1.80;;;12.40;86.90;;;;;;4898633;29;20084;-75
2022/11/07 05:28:42;;;;;;;5.57;1.70;;;12.40;86.90;;;;;;4901383;29;20421;-74
2022/11/07 05:31:14;;;;;;;7.25;2.10;;;12.30;86.90;;;;;;4902971;29;20061;-75
2022/11/07 05:33:40;;;;;;;8.02;1.85;;;12.40;87.00;;;;;;4887274;29;20532;-74
2022/11/07 05:36:14;;;;;;;7.28;1.80;;;12.40;86.90;;;;;;4898511;29;20060;-74
2022/11/07 05:38:44;;;;;;;9.70;2.17;;;12.40;86.90;;;;;;4881173;29;20028;-74
2022/11/07 05:41:11;;;;;;;8.60;2.30;;;12.40;86.90;;;;;;4897361;29;20040;-75
2022/11/07 05:43:37;;;;;;;7.38;1.85;;;12.40;86.90;;;;;;4897441;29;20115;-74
2022/11/07 05:46:03;;;;;;;7.53;1.60;;;12.40;86.90;;;;;;4897894;29;20036;-75
2022/11/07 05:48:31;;;;;;;6.88;1.60;;;12.40;86.90;;;;;;4882019;29;20469;-75
2022/11/07 05:50:57;;;;;;;7.95;1.50;;;12.40;86.80;;;;;;4900433;29;20104;-76
2022/11/07 05:53:24;;;;;;;9.57;1.80;;;12.40;86.90;;;;;;4902719;29;20036;-75
2022/11/07 05:55:51;;;;;;;6.80;1.98;;;12.40;86.80;;;;;;4902964;29;20033;-74
2022/11/07 05:58:17;;;;;;;8.27;2.33;;;12.40;86.80;;;;;;4904512;29;20092;-75
2022/11/07 06:00:43;;;;;;;8.95;1.80;;;12.40;86.80;;;;;;4887895;29;20032;-74
2022/11/07 06:03:09;;;;;;;8.10;1.98;;;12.40;86.80;;;;;;4906013;29;20036;-75
2022/11/07 06:05:37;;;;;;;7.07;1.90;;;12.40;86.80;;;;;;4905757;29;20044;-75
2022/11/07 06:08:03;;;;;;;6.22;1.77;;;12.40;86.80;;;;;;4890414;29;20046;-76
2022/11/07 06:10:29;;;;;;;8.70;1.90;;;12.40;86.70;;;;;;4891122;29;20556;-76
2022/11/07 06:13:03;;;;;;;9.18;2.20;;;12.40;86.80;;;;;;4902040;29;20037;-76
2022/11/07 06:15:30;;;;;;;7.55;2.08;;;12.40;86.80;;;;;;4884953;29;20033;-75
2022/11/07 06:17:59;;;;;;;7.03;1.92;;;12.40;86.80;;;;;;4886503;29;20139;-73
2022/11/07 06:20:25;;;;;;;8.73;2.15;;;12.40;86.80;;;;;;4885832;29;20039;-74
2022/11/07 06:22:50;;;;;;;7.65;1.90;;;12.40;86.70;;;;;;4901367;29;20056;-75
2022/11/07 06:25:16;;;;;;;7.13;1.75;;;12.40;86.80;;;;;;4900876;29;20116;-74
2022/11/07 06:27:42;;;;;;;5.50;1.80;;;12.40;86.80;;;;;;4900221;29;20095;-75
2022/11/07 06:30:08;;;;;;;6.55;2.03;;;12.40;87.40;;;;;;4883330;29;20137;-75
2022/11/07 06:32:33;;;;;;;7.88;1.88;;;12.40;86.80;;;;;;4885385;29;20032;-74
2022/11/07 06:34:59;;;;;;;8.25;1.77;;;12.40;87.30;;;;;;4884998;29;20400;-76
2022/11/07 06:37:26;;;;;;;6.70;2.00;;;12.40;86.70;;;;;;4888329;29;20039;-78
2022/11/07 06:39:51;;;;;;;8.52;1.95;;;12.40;87.40;;;;;;4891432;29;20039;-77
2022/11/07 06:42:17;;;;;;;6.95;1.77;;;12.40;86.70;;;;;;4909286;29;20463;-75
2022/11/07 06:44:43;;;;;;;5.82;1.73;;;12.40;86.70;;;;;;4910165;29;20052;-76
2022/11/07 06:47:08;;;;;;;6.25;1.75;;;12.40;86.70;;;;;;4906958;29;20067;-77
2022/11/07 06:49:34;;;;;;;7.75;2.10;;;12.40;86.70;;;;;;4921849;29;20041;-74
2022/11/07 06:52:00;;;;;;;8.15;2.10;;;12.40;86.70;;;;;;4918498;29;20048;-75
2022/11/07 06:54:26;;;;;;;8.88;1.85;;;12.40;86.70;;;;;;4900567;29;20088;-75
2022/11/07 06:56:51;;;;;;;6.45;2.00;;;12.40;86.60;;;;;;4891919;29;20065;-74
2022/11/07 06:59:17;;;;;;;9.02;1.80;;;12.40;86.60;;;;;;4901996;29;20029;-77
2022/11/07 07:01:44;;;;;;;9.18;2.38;;;12.40;86.60;;;;;;4920924;29;20039;-75
2022/11/07 07:04:10;;;;;;;8.73;2.08;;;12.40;86.60;;;;;;4902282;29;20037;-76
2022/11/07 07:06:36;;;;;;;9.43;2.08;;;12.50;86.70;;;;;;4903613;29;20028;-74
2022/11/07 07:09:02;;;;;;;10.63;2.17;;;12.40;86.60;;;;;;4920025;29;20055;-76
2022/11/07 07:11:27;;;;;;;6.80;1.88;;;12.50;86.70;;;;;;4902345;29;20459;-74
2022/11/07 07:13:55;;;;;;;11.10;2.00;;;12.50;86.60;;;;;;4905331;29;20035;-74
2022/11/07 07:16:21;;;;;;;7.20;1.80;;;12.50;86.60;;;;;;4901952;29;20335;-74
2022/11/07 07:18:46;;;;;;;7.63;2.00;;;12.50;86.60;;;;;;4887096;29;20108;-73
2022/11/07 07:21:13;;;;;;;5.68;1.80;;;12.50;86.50;;;;;;4903038;29;20044;-76
2022/11/07 07:23:39;;;;;;;11.80;1.85;;;12.60;86.50;;;;;;4885344;29;20068;-73
2022/11/07 07:26:10;;;;;;;8.95;1.90;;;12.60;86.50;;;;;;4897072;29;20075;-75
2022/11/07 07:28:38;;;;;;;10.63;1.92;;;12.60;86.40;;;;;;4907247;29;20024;-75
2022/11/07 07:31:12;;;;;;;6.75;1.67;;;12.60;86.40;;;;;;4904372;29;20032;-74
2022/11/07 07:33:38;;;;;;;;;;;12.70;86.40;;;;;;4905932;29;20593;-74
2022/11/07 07:36:04;;;;;;;10.52;2.00;;;12.70;86.30;;;;;;4905062;29;19954;-77
2022/11/07 07:38:30;;;;;;;9.13;2.20;;;12.70;86.30;;;;;;4888063;29;20084;-75
2022/11/07 07:40:57;;;;;;;8.25;2.10;;;12.60;86.20;;;;;;4887871;29;20449;-74
2022/11/07 07:43:23;;;;;;;6.03;1.70;;;12.70;86.30;;;;;;4910835;29;20492;-75
2022/11/07 07:45:49;;;;;;;7.80;2.00;;;12.70;86.20;;;;;;4890002;29;20048;-75
2022/11/07 07:48:14;;;;;;;11.77;2.85;;;12.70;86.20;;;;;;4905072;29;20477;-76
2022/11/07 07:50:40;;;;;;;12.40;2.17;;;12.80;86.30;;;;;;4889815;29;20032;-76
2022/11/07 07:53:05;;;;;;;10.45;2.35;;;12.80;86.20;;;;;;4905846;29;20040;-75
2022/11/07 07:55:31;;;;;;;4.88;1.85;;;12.80;86.20;;;;;;4889367;29;20051;-76
2022/11/07 07:57:57;;;;;;;9.32;2.47;;;12.80;86.10;;;;;;4888188;29;20028;-74
2022/11/07 08:00:22;;;;;;;8.25;2.58;;;12.90;86.10;;;;;;4905435;29;20047;-76
2022/11/07 08:02:48;;;;;;;11.43;2.30;;;12.90;86.10;;;;;;4905004;29;20247;-76
2022/11/07 08:05:14;;;;;;;9.85;2.10;;;12.90;86.00;;;;;;4887686;29;20123;-76
2022/11/07 08:07:49;;;;;;;9.05;2.13;;;12.90;86.00;;;;;;4886733;29;20084;-75
2022/11/07 08:10:16;;;;;;;8.52;1.92;;;13.00;86.00;;;;;;4902536;29;20544;-73
2022/11/07 08:12:46;;;;;;;8.70;2.58;;;13.00;85.90;;;;;;4883337;29;20660;-74
2022/11/07 08:15:13;;;;;;;8.02;2.00;;;13.10;85.80;;;;;;4883844;29;20493;-76
2022/11/07 08:17:39;;;;;;;10.27;2.17;;;13.10;85.80;;;;;;4900030;29;20028;-77
2022/11/07 08:20:08;;;;;;;9.45;1.95;;;13.10;85.70;;;;;;4900047;29;20041;-78
2022/11/07 08:22:34;;;;;;;6.03;1.70;;;13.20;85.70;;;;;;4882369;29;20088;-74
2022/11/07 08:25:00;;;;;;;4.53;1.85;;;13.20;85.60;;;;;;4881986;29;20033;-76
2022/11/07 08:27:28;;;;;;;9.23;2.15;;;13.30;86.10;;;;;;4898998;29;20113;-75
2022/11/07 08:29:53;;;;;;;6.47;1.70;;;13.30;85.40;;;;;;4898969;29;20043;-78
2022/11/07 08:32:19;;;;;;;9.15;2.15;;;13.30;85.30;;;;;;4882098;29;20131;-77
2022/11/07 08:34:45;;;;;;;8.80;2.50;;;13.40;85.20;;;;;;4882197;29;20025;-81
2022/11/07 08:37:10;;;;;;;8.70;1.85;;;13.50;85.20;;;;;;4901010;29;20404;-79
2022/11/07 08:39:36;;;;;;;7.60;2.03;;;13.50;85.10;;;;;;4882632;29;20095;-76
2022/11/07 08:42:03;;;;;;;6.40;1.70;;;13.50;85.00;;;;;;4898871;29;20029;-76
2022/11/07 08:44:31;;;;;;;7.50;2.10;;;13.60;84.90;;;;;;4898443;29;20036;-78
2022/11/07 08:46:57;;;;;;;8.38;2.13;;;13.60;84.80;;;;;;4881706;29;20484;-76
2022/11/07 08:49:22;;;;;;;6.18;2.25;;;13.70;84.70;;;;;;4898362;29;20040;-78
2022/11/07 08:51:48;;;;;;;9.02;3.33;;;13.80;84.50;;;;;;4898227;29;20044;-78
2022/11/07 08:54:14;;;;;;;7.45;2.70;;;13.80;84.40;;;;;;4881198;29;20028;-76
2022/11/07 08:56:39;;;;;;;10.10;2.47;;;13.90;84.30;;;;;;4898302;29;20049;-76
2022/11/07 08:59:05;;;;;;;7.72;2.00;;;13.90;84.30;;;;;;4881348;29;20483;-78
2022/11/07 09:01:31;;;;;;;7.03;2.03;;;13.90;84.20;;;;;;4881121;29;20128;-77
2022/11/07 09:03:56;;;;;;;8.85;2.92;;;13.90;84.10;;;;;;4894999;29;20092;-76
2022/11/07 09:06:22;;;;;;;9.32;2.00;;;13.90;84.10;;;;;;4881082;29;20032;-76
2022/11/07 09:08:48;;;;;;;9.70;2.08;;;13.90;84.10;;;;;;4897706;29;20047;-76
2022/11/07 09:11:17;;;;;;;9.90;2.00;;;13.90;84.10;;;;;;4898006;29;20083;-77
2022/11/07 09:13:46;;;;;;;5.10;1.70;;;13.90;84.10;;;;;;4897854;29;20036;-76
2022/11/07 09:16:16;;;;;;;8.82;2.10;;;13.90;84.00;;;;;;4880906;29;20571;-77
2022/11/07 09:18:44;;;;;;;5.32;1.63;;;14.00;84.60;;;;;;4897983;29;20068;-77
2022/11/07 09:21:10;;;;;;;6.80;1.60;;;13.90;83.90;;;;;;4880896;29;20037;-77
2022/11/07 09:23:36;;;;;;;7.75;1.50;;;14.00;84.00;;;;;;4878443;29;20036;-78
2022/11/07 09:26:01;;;;;;;7.68;1.58;;;14.00;84.00;;;;;;4894957;29;20569;-77
2022/11/07 09:28:27;;;;;;;6.13;1.80;;;14.00;84.00;;;;;;4897852;29;20104;-77
2022/11/07 09:30:56;;;;;;;7.18;1.92;;;14.00;83.90;;;;;;4878218;29;20449;-77
2022/11/07 09:33:22;;;;;;;7.50;2.17;;;14.10;83.90;;;;;;4897590;29;20378;-77
2022/11/07 09:35:51;;;;;;;7.63;1.88;;;14.00;83.80;;;;;;4897641;29;20489;-77
2022/11/07 09:38:17;;;;;;;8.88;2.17;;;14.00;83.90;;;;;;4892782;29;20575;-77
2022/11/07 09:40:53;;;;;;;8.50;2.15;;;14.00;83.90;;;;;;4880515;29;20119;-78
2022/11/07 09:43:34;;;;;;;8.85;1.92;;;14.10;83.90;;;;;;4880564;29;20559;-78
2022/11/07 09:46:50;;;;;;;8.73;2.40;;;14.10;84.00;;;;;;4880691;29;20032;-78
2022/11/07 09:49:24;;;;;;;9.00;2.10;;;14.00;83.70;;;;;;4839327;29;20042;-78
2022/11/07 09:52:30;;;;;;;6.32;2.15;;;14.00;83.80;;;;;;4839494;29;20090;-78
2022/11/07 09:55:22;;;;;;;11.88;3.20;;;14.00;83.80;;;;;;4879178;29;20074;-76
2022/11/07 09:57:51;;;;;;;7.03;2.50;;;14.10;83.90;;;;;;4880341;29;20116;-75
2022/11/07 10:00:19;;;;;;;7.32;2.67;;;14.10;83.90;;;;;;4880174;29;20040;-77
2022/11/07 10:02:52;;;;;;;7.32;2.50;;;14.20;83.90;;;;;;4896878;29;20033;-77
2022/11/07 10:05:42;;;;;;;5.22;1.98;;;14.20;83.80;;;;;;4880171;29;20038;-76
2022/11/07 10:08:23;;;;;;;8.60;2.20;;;14.20;83.80;;;;;;4879942;29;20044;-76
2022/11/07 10:10:59;;;;;;;9.13;2.42;;;14.20;83.80;;;;;;4897000;29;20032;-76
2022/11/07 10:13:53;;;;;;;7.18;1.92;;;14.20;83.80;;;;;;4879642;29;20028;-76
2022/11/07 10:16:54;;;;;;;8.38;2.10;;;14.20;83.80;;;;;;4880074;29;20036;-77
2022/11/07 10:19:47;;;;;;;6.63;2.10;;;14.20;83.80;;;;;;4880007;29;20044;-77
2022/11/07 10:22:25;;;;;;;6.85;2.00;;;14.20;83.80;;;;;;4896845;29;20124;-77
2022/11/07 10:25:09;;;;;;;9.05;1.95;;;14.10;83.80;;;;;;4897023;29;20039;-77
2022/11/07 10:27:37;;;;;;;7.07;2.00;;;14.10;83.80;;;;;;4896861;29;20033;-77
2022/11/07 10:30:17;;;;;;;9.15;2.03;;;14.10;83.90;;;;;;4879980;29;20088;-77
2022/11/07 10:33:10;;;;;;;4.45;1.70;;;14.10;84.00;;;;;;4896744;29;20559;-76
2022/11/07 10:35:41;;;;;;;8.95;1.92;;;14.10;84.10;;;;;;4879846;29;20400;-76
2022/11/07 10:38:26;;;;;;;6.35;1.90;;;14.10;84.30;;;;;;4896479;29;20036;-76
2022/11/07 10:40:53;;;;;;;10.30;1.90;;;14.20;84.30;;;;;;4896326;29;20040;-76
2022/11/07 10:43:26;;;;;;;6.43;1.80;;;14.20;84.30;;;;;;4879748;29;20426;-76
2022/11/07 10:45:55;;;;;;;9.43;1.80;;;14.20;84.30;;;;;;4879795;29;20039;-77
2022/11/07 10:48:21;;;;;;;7.00;1.70;;;14.20;84.30;;;;;;4879628;29;20507;-76
2022/11/07 10:50:53;;;;;;;7.68;1.80;;;14.20;84.30;;;;;;4879717;29;20024;-76
2022/11/07 10:53:20;;;;;;;6.57;1.90;;;14.20;84.30;;;;;;4879862;29;20029;-76
2022/11/07 10:55:49;;;;;;;6.22;1.88;;;14.20;84.30;;;;;;4896361;29;20069;-76
2022/11/07 10:58:19;;;;;;;7.95;1.85;;;14.20;84.20;;;;;;4896564;29;20024;-76
2022/11/07 11:01:03;;;;;;;18.63;2.58;;;14.20;84.20;;;;;;4896217;29;20039;-76
2022/11/07 11:03:48;;;;;;;;;;;14.30;84.20;;;;;;4879813;29;20029;-77
2022/11/07 11:06:17;;;;;;;8.05;1.70;;;14.40;84.10;;;;;;4879619;29;20002;-76
2022/11/07 11:08:44;;;;;;;7.63;1.92;;;14.40;84.00;;;;;;4896166;29;20053;-76
2022/11/07 11:11:19;;;;;;;6.25;1.85;;;14.40;84.00;;;;;;4879525;29;20064;-76
2022/11/07 11:13:45;;;;;;;6.93;2.20;;;14.50;83.80;;;;;;4879390;29;20497;-76
2022/11/07 11:16:26;;;;;;;7.53;1.98;;;14.50;83.70;;;;;;4893638;29;20041;-77
2022/11/07 11:18:58;;;;;;;8.57;2.17;;;14.60;83.60;;;;;;4896214;29;20045;-77
2022/11/07 11:21:24;;;;;;;7.07;2.20;;;14.60;83.40;;;;;;4896339;29;20701;-77
2022/11/07 11:23:52;;;;;;;7.78;2.10;;;14.70;83.80;;;;;;4879358;29;20138;-76
2022/11/07 11:26:34;;;;;;;8.70;2.38;;;14.70;83.10;;;;;;4899479;29;20051;-76
2022/11/07 11:29:08;;;;;;;6.25;1.98;;;14.70;83.00;;;;;;4880361;29;20087;-77
2022/11/07 11:31:42;;;;;;;5.22;1.80;;;14.80;83.00;;;;;;4882693;29;20032;-77
2022/11/07 11:34:33;;;;;;;6.13;2.00;;;14.80;82.90;;;;;;4899439;29;20035;-76
2022/11/07 11:37:12;;;;;;;6.32;2.00;;;14.70;82.80;;;;;;4882568;29;20080;-77
2022/11/07 11:39:57;;;;;;;8.95;2.00;;;14.70;82.60;;;;;;4882336;29;20043;-76
2022/11/07 11:42:44;;;;;;;9.32;2.13;;;14.70;82.80;;;;;;4899289;29;20662;-76
2022/11/07 11:45:14;;;;;;;7.20;1.80;;;14.70;82.80;;;;;;4881943;29;20049;-77
2022/11/07 11:47:49;;;;;;;7.40;1.90;;;14.70;82.80;;;;;;4882724;29;20025;-74
2022/11/07 11:50:36;;;;;;;6.50;1.85;;;14.70;82.80;;;;;;4899773;29;20396;-77
2022/11/07 11:53:02;;;;;;;5.72;1.90;;;14.70;82.70;;;;;;4898903;29;20037;-76
2022/11/07 11:55:37;;;;;;;5.85;2.17;;;14.80;82.70;;;;;;4899097;29;20044;-75
2022/11/07 11:58:29;;;;;;;5.30;1.88;;;14.80;82.60;;;;;;4882138;29;20551;-76
2022/11/07 12:01:13;;;;;;;4.47;1.60;;;14.90;82.40;;;;;;4881984;29;20148;-76
2022/11/07 12:03:48;;;;;;;;;;;15.00;82.20;;;;;;4882392;29;20024;-78
2022/11/07 12:06:22;;;;;;;6.03;2.13;;;15.00;82.80;;;;;;4881807;29;19912;-76
2022/11/07 12:08:57;;;;;;;7.03;2.28;;;15.00;82.20;;;;;;4898591;29;20044;-76
2022/11/07 12:11:52;;;;;;;6.95;2.00;;;15.00;82.00;;;;;;4881701;29;20124;-76
2022/11/07 12:14:47;;;;;;;8.52;1.80;;;15.00;81.90;;;;;;4881683;29;20091;-77
2022/11/07 12:17:34;;;;;;;9.55;1.83;;;15.00;81.90;;;;;;4881772;29;20028;-76
2022/11/07 12:20:48;;;;;;;6.53;1.58;;;15.00;81.90;;;;;;4881591;29;20127;-76
2022/11/07 12:23:46;;;;;;;8.65;2.08;;;15.10;81.90;;;;;;4871882;29;20040;-76
2022/11/07 12:26:29;;;;;;;10.80;2.05;;;15.10;81.80;;;;;;4850794;29;20088;-78
2022/11/07 12:29:03;;;;;;;8.45;1.80;;;15.10;81.80;;;;;;4881370;29;20029;-78
2022/11/07 12:31:57;;;;;;;9.93;1.80;;;15.10;81.80;;;;;;4898613;29;20441;-76
2022/11/07 12:35:01;;;;;;;8.13;2.10;;;15.20;81.80;;;;;;4881661;29;20029;-76
2022/11/07 12:38:03;;;;;;;8.85;2.10;;;15.10;81.40;;;;;;4898516;29;20060;-77
2022/11/07 12:40:46;;;;;;;11.30;2.03;;;15.20;81.50;;;;;;4898106;29;20572;-76
2022/11/07 12:43:16;;;;;;;9.52;1.90;;;15.10;81.40;;;;;;4879837;29;20449;-77
2022/11/07 12:45:52;;;;;;;8.35;2.00;;;15.10;81.40;;;;;;4881240;29;20028;-76
2022/11/07 12:48:46;;;;;;;5.40;1.90;;;15.20;81.40;;;;;;4881459;29;20033;-77
2022/11/07 12:51:26;;;;;;;10.27;1.98;;;15.10;81.20;;;;;;4897922;29;20180;-75
2022/11/07 12:54:09;;;;;;;6.63;1.70;;;15.10;81.20;;;;;;4898296;29;20043;-78
2022/11/07 12:56:36;;;;;;;7.70;1.88;;;15.20;81.30;;;;;;4881359;29;20056;-76
2022/11/07 12:59:25;;;;;;;6.78;1.90;;;15.20;81.20;;;;;;4881089;29;20024;-78
2022/11/07 13:02:18;;;;;;;5.85;1.67;;;15.30;81.00;;;;;;4880903;29;20029;-76
2022/11/07 13:04:51;;;;;;;5.47;1.80;;;15.20;81.00;;;;;;4846915;29;20043;-77
2022/11/07 13:07:16;;;;;;;;;;;15.30;81.10;;;;;;4898291;29;20080;-77
2022/11/07 13:09:54;;;;;;;8.85;1.85;;;15.30;80.80;;;;;;4897836;29;20595;-77
2022/11/07 13:12:35;;;;;;;7.70;1.60;;;15.30;80.70;;;;;;4881377;29;20107;-77
2022/11/07 13:15:03;;;;;;;5.35;1.60;;;15.30;80.70;;;;;;4880970;29;20500;-76
2022/11/07 13:17:45;;;;;;;8.52;1.90;;;15.40;80.60;;;;;;4878028;29;20393;-77